sensor_id;sensor_type;location;lat;lon;timestamp;P1;durP1;ratioP1;P2;durP2;ratioP2
24161;SDS011;12318;51.262;7.066;2023-06-26T00:01:27;7.85;;;4.43;;
24161;SDS011;12318;51.262;7.066;2023-06-26T00:03:59;6.75;;;4.45;;
24161;SDS011;12318;51.262;7.066;2023-06-26T00:06:25;5.40;;;4.50;;
24161;SDS011;12318;51.262;7.066;2023-06-26T00:08:52;5.50;;;4.18;;
24161;SDS011;12318;51.262;7.066;2023-06-26T00:11:19;6.38;;;4.20;;
24161;SDS011;12318;51.262;7.066;2023-06-26T00:13:45;5.22;;;4.45;;
24161;SDS011;12318;51.262;7.066;2023-06-26T00:16:11;4.40;;;3.97;;
24161;SDS011;12318;51.262;7.066;2023-06-26T00:18:37;8.93;;;4.13;;
24161;SDS011;12318;51.262;7.066;2023-06-26T00:21:11;5.60;;;4.35;;
24161;SDS011;12318;51.262;7.066;2023-06-26T00:23:37;4.60;;;4.20;;
24161;SDS011;12318;51.262;7.066;2023-06-26T00:26:06;5.18;;;4.05;;
24161;SDS011;12318;51.262;7.066;2023-06-26T00:28:31;7.35;;;4.75;;
24161;SDS011;12318;51.262;7.066;2023-06-26T00:33:51;5.70;;;4.70;;
24161;SDS011;12318;51.262;7.066;2023-06-26T00:36:16;5.50;;;4.60;;
24161;SDS011;12318;51.262;7.066;2023-06-26T00:38:42;5.30;;;4.43;;
24161;SDS011;12318;51.262;7.066;2023-06-26T00:41:08;7.10;;;4.05;;
24161;SDS011;12318;51.262;7.066;2023-06-26T00:43:37;5.22;;;3.95;;
24161;SDS011;12318;51.262;7.066;2023-06-26T00:46:03;6.50;;;4.45;;
24161;SDS011;12318;51.262;7.066;2023-06-26T00:48:30;6.45;;;4.50;;
24161;SDS011;12318;51.262;7.066;2023-06-26T00:53:44;5.80;;;4.55;;
24161;SDS011;12318;51.262;7.066;2023-06-26T00:56:09;6.28;;;4.40;;
24161;SDS011;12318;51.262;7.066;2023-06-26T00:58:36;4.30;;;3.90;;
24161;SDS011;12318;51.262;7.066;2023-06-26T01:01:09;8.48;;;4.55;;
24161;SDS011;12318;51.262;7.066;2023-06-26T01:03:42;9.55;;;4.70;;
24161;SDS011;12318;51.262;7.066;2023-06-26T01:06:10;6.72;;;4.60;;
24161;SDS011;12318;51.262;7.066;2023-06-26T01:08:38;7.82;;;4.80;;
24161;SDS011;12318;51.262;7.066;2023-06-26T01:13:50;5.57;;;4.47;;
24161;SDS011;12318;51.262;7.066;2023-06-26T01:16:16;5.32;;;4.38;;
24161;SDS011;12318;51.262;7.066;2023-06-26T01:18:44;5.32;;;4.68;;
24161;SDS011;12318;51.262;7.066;2023-06-26T01:21:26;5.35;;;4.45;;
24161;SDS011;12318;51.262;7.066;2023-06-26T01:26:45;4.97;;;4.15;;
24161;SDS011;12318;51.262;7.066;2023-06-26T01:29:21;5.88;;;4.45;;
24161;SDS011;12318;51.262;7.066;2023-06-26T01:31:49;6.22;;;4.15;;
24161;SDS011;12318;51.262;7.066;2023-06-26T01:34:17;7.55;;;4.78;;
24161;SDS011;12318;51.262;7.066;2023-06-26T01:36:44;5.53;;;4.55;;
24161;SDS011;12318;51.262;7.066;2023-06-26T01:39:22;6.20;;;4.10;;
24161;SDS011;12318;51.262;7.066;2023-06-26T01:41:47;6.35;;;4.47;;
24161;SDS011;12318;51.262;7.066;2023-06-26T01:44:23;6.30;;;4.72;;
24161;SDS011;12318;51.262;7.066;2023-06-26T01:52:19;6.65;;;4.55;;
24161;SDS011;12318;51.262;7.066;2023-06-26T01:57:35;10.43;;;4.68;;
24161;SDS011;12318;51.262;7.066;2023-06-26T02:00:14;4.95;;;4.32;;
24161;SDS011;12318;51.262;7.066;2023-06-26T02:02:43;8.13;;;4.80;;
24161;SDS011;12318;51.262;7.066;2023-06-26T02:05:09;6.40;;;4.70;;
24161;SDS011;12318;51.262;7.066;2023-06-26T02:07:35;7.28;;;5.20;;
24161;SDS011;12318;51.262;7.066;2023-06-26T02:10:03;7.18;;;4.70;;
24161;SDS011;12318;51.262;7.066;2023-06-26T02:12:29;5.05;;;4.32;;
24161;SDS011;12318;51.262;7.066;2023-06-26T02:14:55;6.10;;;4.40;;
24161;SDS011;12318;51.262;7.066;2023-06-26T02:17:20;7.85;;;4.68;;
24161;SDS011;12318;51.262;7.066;2023-06-26T02:19:47;4.78;;;4.28;;
24161;SDS011;12318;51.262;7.066;2023-06-26T02:22:13;4.88;;;4.32;;
24161;SDS011;12318;51.262;7.066;2023-06-26T02:24:40;5.55;;;4.97;;
24161;SDS011;12318;51.262;7.066;2023-06-26T02:27:06;5.45;;;4.72;;
24161;SDS011;12318;51.262;7.066;2023-06-26T02:29:32;5.47;;;4.50;;
24161;SDS011;12318;51.262;7.066;2023-06-26T02:31:58;5.50;;;4.43;;
24161;SDS011;12318;51.262;7.066;2023-06-26T02:34:24;5.70;;;4.30;;
24161;SDS011;12318;51.262;7.066;2023-06-26T02:36:49;4.78;;;4.35;;
24161;SDS011;12318;51.262;7.066;2023-06-26T02:42:00;6.45;;;4.40;;
24161;SDS011;12318;51.262;7.066;2023-06-26T02:44:26;6.90;;;4.90;;
24161;SDS011;12318;51.262;7.066;2023-06-26T02:46:51;6.07;;;4.45;;
24161;SDS011;12318;51.262;7.066;2023-06-26T02:49:18;4.90;;;4.40;;
24161;SDS011;12318;51.262;7.066;2023-06-26T02:51:43;5.63;;;4.82;;
24161;SDS011;12318;51.262;7.066;2023-06-26T02:54:09;5.57;;;4.63;;
24161;SDS011;12318;51.262;7.066;2023-06-26T02:56:35;6.18;;;4.60;;
24161;SDS011;12318;51.262;7.066;2023-06-26T02:59:13;5.63;;;4.35;;
24161;SDS011;12318;51.262;7.066;2023-06-26T03:01:38;7.30;;;4.90;;
24161;SDS011;12318;51.262;7.066;2023-06-26T03:04:04;7.00;;;4.47;;
24161;SDS011;12318;51.262;7.066;2023-06-26T03:06:30;10.13;;;4.25;;
24161;SDS011;12318;51.262;7.066;2023-06-26T03:08:56;6.07;;;4.40;;
24161;SDS011;12318;51.262;7.066;2023-06-26T03:11:21;5.47;;;4.28;;
24161;SDS011;12318;51.262;7.066;2023-06-26T03:13:47;6.40;;;4.78;;
24161;SDS011;12318;51.262;7.066;2023-06-26T03:16:13;6.47;;;4.45;;
24161;SDS011;12318;51.262;7.066;2023-06-26T03:18:39;5.32;;;4.28;;
24161;SDS011;12318;51.262;7.066;2023-06-26T03:21:05;7.35;;;4.35;;
24161;SDS011;12318;51.262;7.066;2023-06-26T03:23:30;6.50;;;4.95;;
24161;SDS011;12318;51.262;7.066;2023-06-26T03:25:56;7.85;;;4.45;;
24161;SDS011;12318;51.262;7.066;2023-06-26T03:28:22;7.45;;;5.07;;
24161;SDS011;12318;51.262;7.066;2023-06-26T03:30:50;8.63;;;4.50;;
24161;SDS011;12318;51.262;7.066;2023-06-26T03:33:15;8.63;;;4.60;;
24161;SDS011;12318;51.262;7.066;2023-06-26T03:35:41;6.45;;;4.95;;
24161;SDS011;12318;51.262;7.066;2023-06-26T03:38:07;8.98;;;5.25;;
24161;SDS011;12318;51.262;7.066;2023-06-26T03:40:33;9.77;;;5.22;;
24161;SDS011;12318;51.262;7.066;2023-06-26T03:42:58;6.13;;;4.68;;
24161;SDS011;12318;51.262;7.066;2023-06-26T03:45:24;11.60;;;5.22;;
24161;SDS011;12318;51.262;7.066;2023-06-26T03:47:50;7.47;;;5.00;;
24161;SDS011;12318;51.262;7.066;2023-06-26T03:50:29;8.00;;;4.88;;
24161;SDS011;12318;51.262;7.066;2023-06-26T03:52:54;9.68;;;5.00;;
24161;SDS011;12318;51.262;7.066;2023-06-26T03:55:20;7.93;;;5.00;;
24161;SDS011;12318;51.262;7.066;2023-06-26T03:57:48;8.10;;;5.32;;
24161;SDS011;12318;51.262;7.066;2023-06-26T04:00:16;6.00;;;4.78;;
24161;SDS011;12318;51.262;7.066;2023-06-26T04:02:42;8.23;;;5.57;;
24161;SDS011;12318;51.262;7.066;2023-06-26T04:05:08;6.68;;;5.18;;
24161;SDS011;12318;51.262;7.066;2023-06-26T04:07:34;8.35;;;5.40;;
24161;SDS011;12318;51.262;7.066;2023-06-26T04:10:01;6.20;;;4.88;;
24161;SDS011;12318;51.262;7.066;2023-06-26T04:12:27;7.70;;;5.13;;
24161;SDS011;12318;51.262;7.066;2023-06-26T04:14:53;7.07;;;5.15;;
24161;SDS011;12318;51.262;7.066;2023-06-26T04:17:18;8.18;;;5.50;;
24161;SDS011;12318;51.262;7.066;2023-06-26T04:19:45;8.55;;;5.28;;
24161;SDS011;12318;51.262;7.066;2023-06-26T04:22:11;9.30;;;5.43;;
24161;SDS011;12318;51.262;7.066;2023-06-26T04:24:37;8.60;;;5.50;;
24161;SDS011;12318;51.262;7.066;2023-06-26T04:27:03;9.98;;;5.47;;
24161;SDS011;12318;51.262;7.066;2023-06-26T04:29:29;8.90;;;5.55;;
24161;SDS011;12318;51.262;7.066;2023-06-26T04:31:54;6.38;;;5.40;;
24161;SDS011;12318;51.262;7.066;2023-06-26T04:34:26;9.73;;;5.28;;
24161;SDS011;12318;51.262;7.066;2023-06-26T04:36:53;8.27;;;5.57;;
24161;SDS011;12318;51.262;7.066;2023-06-26T04:39:23;7.88;;;5.47;;
24161;SDS011;12318;51.262;7.066;2023-06-26T04:41:48;9.00;;;5.47;;
24161;SDS011;12318;51.262;7.066;2023-06-26T04:44:14;8.88;;;5.20;;
24161;SDS011;12318;51.262;7.066;2023-06-26T04:46:40;10.45;;;5.30;;
24161;SDS011;12318;51.262;7.066;2023-06-26T04:49:07;14.88;;;5.35;;
24161;SDS011;12318;51.262;7.066;2023-06-26T04:51:33;9.07;;;5.30;;
24161;SDS011;12318;51.262;7.066;2023-06-26T04:54:05;8.85;;;5.40;;
24161;SDS011;12318;51.262;7.066;2023-06-26T04:56:32;9.55;;;5.55;;
24161;SDS011;12318;51.262;7.066;2023-06-26T04:58:59;7.22;;;5.28;;
24161;SDS011;12318;51.262;7.066;2023-06-26T05:01:24;10.57;;;5.55;;
24161;SDS011;12318;51.262;7.066;2023-06-26T05:03:54;9.15;;;5.38;;
24161;SDS011;12318;51.262;7.066;2023-06-26T05:06:23;10.40;;;6.03;;
24161;SDS011;12318;51.262;7.066;2023-06-26T05:08:49;7.25;;;5.28;;
24161;SDS011;12318;51.262;7.066;2023-06-26T05:11:24;8.63;;;4.90;;
24161;SDS011;12318;51.262;7.066;2023-06-26T05:13:50;5.85;;;4.80;;
24161;SDS011;12318;51.262;7.066;2023-06-26T05:16:16;5.43;;;4.82;;
24161;SDS011;12318;51.262;7.066;2023-06-26T05:18:42;12.38;;;5.10;;
24161;SDS011;12318;51.262;7.066;2023-06-26T05:21:26;8.82;;;5.15;;
24161;SDS011;12318;51.262;7.066;2023-06-26T05:23:52;10.55;;;5.65;;
24161;SDS011;12318;51.262;7.066;2023-06-26T05:26:22;10.73;;;5.10;;
24161;SDS011;12318;51.262;7.066;2023-06-26T05:28:48;9.07;;;4.85;;
24161;SDS011;12318;51.262;7.066;2023-06-26T05:31:20;10.93;;;5.05;;
24161;SDS011;12318;51.262;7.066;2023-06-26T05:33:46;6.95;;;4.82;;
24161;SDS011;12318;51.262;7.066;2023-06-26T05:36:13;8.35;;;4.63;;
24161;SDS011;12318;51.262;7.066;2023-06-26T05:38:41;10.52;;;4.97;;
24161;SDS011;12318;51.262;7.066;2023-06-26T05:41:07;9.38;;;4.93;;
24161;SDS011;12318;51.262;7.066;2023-06-26T05:43:34;8.13;;;5.13;;
24161;SDS011;12318;51.262;7.066;2023-06-26T05:45:59;7.00;;;5.05;;
24161;SDS011;12318;51.262;7.066;2023-06-26T05:48:25;6.72;;;4.63;;
24161;SDS011;12318;51.262;7.066;2023-06-26T05:50:53;10.55;;;5.05;;
24161;SDS011;12318;51.262;7.066;2023-06-26T05:53:19;7.95;;;4.68;;
24161;SDS011;12318;51.262;7.066;2023-06-26T05:55:45;10.30;;;4.60;;
24161;SDS011;12318;51.262;7.066;2023-06-26T05:58:11;5.85;;;4.00;;
24161;SDS011;12318;51.262;7.066;2023-06-26T06:00:38;7.97;;;4.25;;
24161;SDS011;12318;51.262;7.066;2023-06-26T06:03:06;10.02;;;4.57;;
24161;SDS011;12318;51.262;7.066;2023-06-26T06:05:32;8.63;;;4.38;;
24161;SDS011;12318;51.262;7.066;2023-06-26T06:07:57;9.25;;;4.95;;
24161;SDS011;12318;51.262;7.066;2023-06-26T06:10:24;10.80;;;5.13;;
24161;SDS011;12318;51.262;7.066;2023-06-26T06:12:50;9.90;;;4.88;;
24161;SDS011;12318;51.262;7.066;2023-06-26T06:15:17;9.25;;;4.85;;
24161;SDS011;12318;51.262;7.066;2023-06-26T06:17:42;10.52;;;4.68;;
24161;SDS011;12318;51.262;7.066;2023-06-26T06:20:20;10.77;;;4.72;;
24161;SDS011;12318;51.262;7.066;2023-06-26T06:22:46;10.32;;;4.70;;
24161;SDS011;12318;51.262;7.066;2023-06-26T06:25:13;10.85;;;4.05;;
24161;SDS011;12318;51.262;7.066;2023-06-26T06:27:39;9.88;;;4.50;;
24161;SDS011;12318;51.262;7.066;2023-06-26T06:33:20;13.23;;;4.25;;
24161;SDS011;12318;51.262;7.066;2023-06-26T06:35:46;9.27;;;4.38;;
24161;SDS011;12318;51.262;7.066;2023-06-26T06:38:12;12.25;;;4.70;;
24161;SDS011;12318;51.262;7.066;2023-06-26T06:43:25;8.05;;;3.95;;
24161;SDS011;12318;51.262;7.066;2023-06-26T06:45:51;11.50;;;4.75;;
24161;SDS011;12318;51.262;7.066;2023-06-26T06:48:17;10.32;;;4.20;;
24161;SDS011;12318;51.262;7.066;2023-06-26T06:50:43;10.23;;;4.43;;
24161;SDS011;12318;51.262;7.066;2023-06-26T06:53:08;8.95;;;4.20;;
24161;SDS011;12318;51.262;7.066;2023-06-26T06:55:34;5.80;;;3.90;;
24161;SDS011;12318;51.262;7.066;2023-06-26T06:58:00;12.25;;;4.65;;
24161;SDS011;12318;51.262;7.066;2023-06-26T07:00:32;7.38;;;4.43;;
24161;SDS011;12318;51.262;7.066;2023-06-26T07:02:58;9.27;;;4.43;;
24161;SDS011;12318;51.262;7.066;2023-06-26T07:05:25;10.70;;;5.15;;
24161;SDS011;12318;51.262;7.066;2023-06-26T07:07:50;9.98;;;5.05;;
24161;SDS011;12318;51.262;7.066;2023-06-26T07:10:27;12.55;;;4.90;;
24161;SDS011;12318;51.262;7.066;2023-06-26T07:12:52;12.30;;;5.07;;
24161;SDS011;12318;51.262;7.066;2023-06-26T07:15:18;14.43;;;5.47;;
24161;SDS011;12318;51.262;7.066;2023-06-26T07:17:44;12.85;;;4.55;;
24161;SDS011;12318;51.262;7.066;2023-06-26T07:20:19;14.00;;;4.70;;
24161;SDS011;12318;51.262;7.066;2023-06-26T07:22:44;8.93;;;4.72;;
24161;SDS011;12318;51.262;7.066;2023-06-26T07:25:11;10.32;;;4.55;;
24161;SDS011;12318;51.262;7.066;2023-06-26T07:27:37;10.57;;;4.40;;
24161;SDS011;12318;51.262;7.066;2023-06-26T07:30:19;11.38;;;4.63;;
24161;SDS011;12318;51.262;7.066;2023-06-26T07:35:10;10.38;;;4.55;;
24161;SDS011;12318;51.262;7.066;2023-06-26T07:37:36;12.25;;;5.20;;
24161;SDS011;12318;51.262;7.066;2023-06-26T07:40:08;11.45;;;5.03;;
24161;SDS011;12318;51.262;7.066;2023-06-26T07:42:34;14.90;;;5.22;;
24161;SDS011;12318;51.262;7.066;2023-06-26T07:45:00;11.43;;;5.35;;
24161;SDS011;12318;51.262;7.066;2023-06-26T07:47:26;13.50;;;4.97;;
24161;SDS011;12318;51.262;7.066;2023-06-26T07:49:52;10.07;;;4.93;;
24161;SDS011;12318;51.262;7.066;2023-06-26T07:52:18;14.30;;;5.38;;
24161;SDS011;12318;51.262;7.066;2023-06-26T07:54:44;11.18;;;5.10;;
24161;SDS011;12318;51.262;7.066;2023-06-26T07:57:10;14.77;;;5.07;;
24161;SDS011;12318;51.262;7.066;2023-06-26T07:59:39;12.77;;;5.20;;
24161;SDS011;12318;51.262;7.066;2023-06-26T08:02:05;13.85;;;4.90;;
24161;SDS011;12318;51.262;7.066;2023-06-26T08:04:31;9.13;;;4.22;;
24161;SDS011;12318;51.262;7.066;2023-06-26T08:06:59;10.68;;;4.97;;
24161;SDS011;12318;51.262;7.066;2023-06-26T08:09:27;12.70;;;4.85;;
24161;SDS011;12318;51.262;7.066;2023-06-26T08:11:53;9.23;;;4.43;;
24161;SDS011;12318;51.262;7.066;2023-06-26T08:14:20;9.00;;;4.57;;
24161;SDS011;12318;51.262;7.066;2023-06-26T08:16:46;12.80;;;4.95;;
24161;SDS011;12318;51.262;7.066;2023-06-26T08:19:12;9.38;;;4.63;;
24161;SDS011;12318;51.262;7.066;2023-06-26T08:21:39;12.57;;;4.72;;
24161;SDS011;12318;51.262;7.066;2023-06-26T08:24:06;13.63;;;5.07;;
24161;SDS011;12318;51.262;7.066;2023-06-26T08:26:31;12.65;;;4.68;;
24161;SDS011;12318;51.262;7.066;2023-06-26T08:28:57;12.80;;;5.10;;
24161;SDS011;12318;51.262;7.066;2023-06-26T08:31:23;12.05;;;5.63;;
24161;SDS011;12318;51.262;7.066;2023-06-26T08:33:49;12.98;;;5.57;;
24161;SDS011;12318;51.262;7.066;2023-06-26T08:36:14;14.40;;;5.32;;
24161;SDS011;12318;51.262;7.066;2023-06-26T08:38:40;11.45;;;5.18;;
24161;SDS011;12318;51.262;7.066;2023-06-26T08:41:06;9.38;;;5.22;;
24161;SDS011;12318;51.262;7.066;2023-06-26T08:43:32;15.70;;;5.80;;
24161;SDS011;12318;51.262;7.066;2023-06-26T08:45:59;12.32;;;5.20;;
24161;SDS011;12318;51.262;7.066;2023-06-26T08:48:25;13.05;;;4.97;;
24161;SDS011;12318;51.262;7.066;2023-06-26T08:50:55;15.50;;;5.72;;
24161;SDS011;12318;51.262;7.066;2023-06-26T08:53:26;14.20;;;5.38;;
24161;SDS011;12318;51.262;7.066;2023-06-26T08:56:08;16.05;;;5.35;;
24161;SDS011;12318;51.262;7.066;2023-06-26T08:58:35;12.75;;;4.70;;
24161;SDS011;12318;51.262;7.066;2023-06-26T09:01:04;9.00;;;5.07;;
24161;SDS011;12318;51.262;7.066;2023-06-26T09:03:31;14.43;;;5.07;;
24161;SDS011;12318;51.262;7.066;2023-06-26T09:05:57;13.57;;;5.47;;
24161;SDS011;12318;51.262;7.066;2023-06-26T09:08:22;10.07;;;5.30;;
24161;SDS011;12318;51.262;7.066;2023-06-26T09:10:48;14.23;;;6.15;;
24161;SDS011;12318;51.262;7.066;2023-06-26T09:13:14;22.40;;;5.63;;
24161;SDS011;12318;51.262;7.066;2023-06-26T09:15:44;13.30;;;5.53;;
24161;SDS011;12318;51.262;7.066;2023-06-26T09:18:10;13.93;;;5.30;;
24161;SDS011;12318;51.262;7.066;2023-06-26T09:20:37;11.38;;;4.78;;
24161;SDS011;12318;51.262;7.066;2023-06-26T09:23:03;14.15;;;5.35;;
24161;SDS011;12318;51.262;7.066;2023-06-26T09:25:30;11.45;;;4.80;;
24161;SDS011;12318;51.262;7.066;2023-06-26T09:27:56;10.73;;;4.93;;
24161;SDS011;12318;51.262;7.066;2023-06-26T09:30:23;16.65;;;5.25;;
24161;SDS011;12318;51.262;7.066;2023-06-26T09:32:49;17.33;;;5.45;;
24161;SDS011;12318;51.262;7.066;2023-06-26T09:35:19;13.73;;;4.40;;
24161;SDS011;12318;51.262;7.066;2023-06-26T09:37:45;12.00;;;4.07;;
24161;SDS011;12318;51.262;7.066;2023-06-26T09:40:13;14.38;;;3.95;;
24161;SDS011;12318;51.262;7.066;2023-06-26T09:42:39;14.27;;;4.53;;
24161;SDS011;12318;51.262;7.066;2023-06-26T09:45:14;12.63;;;4.00;;
24161;SDS011;12318;51.262;7.066;2023-06-26T09:47:44;12.40;;;3.83;;
24161;SDS011;12318;51.262;7.066;2023-06-26T09:50:22;12.30;;;4.25;;
24161;SDS011;12318;51.262;7.066;2023-06-26T09:52:50;12.48;;;3.63;;
24161;SDS011;12318;51.262;7.066;2023-06-26T09:55:17;12.45;;;3.83;;
24161;SDS011;12318;51.262;7.066;2023-06-26T09:57:46;12.05;;;3.70;;
24161;SDS011;12318;51.262;7.066;2023-06-26T10:00:14;14.55;;;3.38;;
24161;SDS011;12318;51.262;7.066;2023-06-26T10:02:40;10.70;;;3.78;;
24161;SDS011;12318;51.262;7.066;2023-06-26T10:05:06;11.20;;;3.83;;
24161;SDS011;12318;51.262;7.066;2023-06-26T10:07:32;12.02;;;3.83;;
24161;SDS011;12318;51.262;7.066;2023-06-26T10:09:59;12.55;;;3.50;;
24161;SDS011;12318;51.262;7.066;2023-06-26T10:12:28;9.48;;;3.47;;
24161;SDS011;12318;51.262;7.066;2023-06-26T10:14:56;6.93;;;3.28;;
24161;SDS011;12318;51.262;7.066;2023-06-26T10:17:22;8.40;;;3.30;;
24161;SDS011;12318;51.262;7.066;2023-06-26T10:20:01;10.30;;;3.45;;
24161;SDS011;12318;51.262;7.066;2023-06-26T10:22:29;7.63;;;3.22;;
24161;SDS011;12318;51.262;7.066;2023-06-26T10:25:04;9.13;;;3.10;;
24161;SDS011;12318;51.262;7.066;2023-06-26T10:27:34;10.40;;;3.40;;
24161;SDS011;12318;51.262;7.066;2023-06-26T10:30:03;9.73;;;2.83;;
24161;SDS011;12318;51.262;7.066;2023-06-26T10:32:37;11.52;;;3.35;;
24161;SDS011;12318;51.262;7.066;2023-06-26T10:35:05;12.98;;;3.42;;
24161;SDS011;12318;51.262;7.066;2023-06-26T10:37:41;11.27;;;2.80;;
24161;SDS011;12318;51.262;7.066;2023-06-26T10:40:12;13.85;;;3.38;;
24161;SDS011;12318;51.262;7.066;2023-06-26T10:42:39;14.77;;;3.03;;
24161;SDS011;12318;51.262;7.066;2023-06-26T10:45:10;9.73;;;2.90;;
24161;SDS011;12318;51.262;7.066;2023-06-26T10:47:39;10.57;;;3.05;;
24161;SDS011;12318;51.262;7.066;2023-06-26T10:50:25;6.32;;;2.45;;
24161;SDS011;12318;51.262;7.066;2023-06-26T10:55:43;6.82;;;2.50;;
24161;SDS011;12318;51.262;7.066;2023-06-26T11:03:38;7.07;;;2.53;;
24161;SDS011;12318;51.262;7.066;2023-06-26T11:06:08;7.85;;;2.38;;
24161;SDS011;12318;51.262;7.066;2023-06-26T11:08:55;7.03;;;2.35;;
24161;SDS011;12318;51.262;7.066;2023-06-26T11:14:16;7.80;;;2.30;;
24161;SDS011;12318;51.262;7.066;2023-06-26T11:16:49;8.35;;;2.03;;
24161;SDS011;12318;51.262;7.066;2023-06-26T11:19:18;10.35;;;2.13;;
24161;SDS011;12318;51.262;7.066;2023-06-26T11:21:45;5.88;;;2.20;;
24161;SDS011;12318;51.262;7.066;2023-06-26T11:24:11;8.50;;;2.10;;
24161;SDS011;12318;51.262;7.066;2023-06-26T11:26:41;5.35;;;2.00;;
24161;SDS011;12318;51.262;7.066;2023-06-26T11:29:09;6.20;;;2.05;;
24161;SDS011;12318;51.262;7.066;2023-06-26T11:31:37;4.05;;;1.80;;
24161;SDS011;12318;51.262;7.066;2023-06-26T11:34:07;11.60;;;2.15;;
24161;SDS011;12318;51.262;7.066;2023-06-26T11:36:35;6.63;;;1.80;;
24161;SDS011;12318;51.262;7.066;2023-06-26T11:39:03;5.55;;;1.65;;
24161;SDS011;12318;51.262;7.066;2023-06-26T11:41:34;2.85;;;1.70;;
24161;SDS011;12318;51.262;7.066;2023-06-26T11:44:01;7.97;;;1.73;;
24161;SDS011;12318;51.262;7.066;2023-06-26T11:46:28;5.03;;;1.80;;
24161;SDS011;12318;51.262;7.066;2023-06-26T11:48:55;6.75;;;1.60;;
24161;SDS011;12318;51.262;7.066;2023-06-26T11:51:28;4.68;;;1.80;;
24161;SDS011;12318;51.262;7.066;2023-06-26T11:53:54;3.88;;;1.77;;
24161;SDS011;12318;51.262;7.066;2023-06-26T11:56:20;4.85;;;1.55;;
24161;SDS011;12318;51.262;7.066;2023-06-26T11:59:04;6.25;;;1.30;;
24161;SDS011;12318;51.262;7.066;2023-06-26T12:01:41;4.05;;;1.40;;
24161;SDS011;12318;51.262;7.066;2023-06-26T12:04:10;6.80;;;1.48;;
24161;SDS011;12318;51.262;7.066;2023-06-26T12:06:38;5.55;;;1.27;;
24161;SDS011;12318;51.262;7.066;2023-06-26T12:09:07;8.95;;;1.70;;
24161;SDS011;12318;51.262;7.066;2023-06-26T12:11:37;2.33;;;1.27;;
24161;SDS011;12318;51.262;7.066;2023-06-26T12:14:05;3.05;;;1.27;;
24161;SDS011;12318;51.262;7.066;2023-06-26T12:16:31;7.13;;;1.30;;
24161;SDS011;12318;51.262;7.066;2023-06-26T12:19:00;7.18;;;1.40;;
24161;SDS011;12318;51.262;7.066;2023-06-26T12:24:02;6.82;;;1.88;;
24161;SDS011;12318;51.262;7.066;2023-06-26T12:26:28;6.95;;;1.20;;
24161;SDS011;12318;51.262;7.066;2023-06-26T12:29:04;5.20;;;1.40;;
24161;SDS011;12318;51.262;7.066;2023-06-26T12:31:30;8.60;;;1.60;;
24161;SDS011;12318;51.262;7.066;2023-06-26T12:33:57;4.88;;;2.10;;
24161;SDS011;12318;51.262;7.066;2023-06-26T12:36:23;4.80;;;1.30;;
24161;SDS011;12318;51.262;7.066;2023-06-26T12:38:49;7.38;;;1.60;;
24161;SDS011;12318;51.262;7.066;2023-06-26T12:41:15;8.25;;;1.27;;
24161;SDS011;12318;51.262;7.066;2023-06-26T12:43:41;7.82;;;1.20;;
24161;SDS011;12318;51.262;7.066;2023-06-26T12:46:08;5.05;;;1.17;;
24161;SDS011;12318;51.262;7.066;2023-06-26T12:48:43;5.43;;;1.20;;
24161;SDS011;12318;51.262;7.066;2023-06-26T12:51:12;4.28;;;1.10;;
24161;SDS011;12318;51.262;7.066;2023-06-26T12:53:39;3.00;;;1.08;;
24161;SDS011;12318;51.262;7.066;2023-06-26T12:56:06;5.75;;;1.00;;
24161;SDS011;12318;51.262;7.066;2023-06-26T12:58:36;5.40;;;1.10;;
24161;SDS011;12318;51.262;7.066;2023-06-26T13:01:19;7.35;;;1.20;;
24161;SDS011;12318;51.262;7.066;2023-06-26T13:03:45;2.08;;;1.23;;
24161;SDS011;12318;51.262;7.066;2023-06-26T13:06:11;2.25;;;1.08;;
24161;SDS011;12318;51.262;7.066;2023-06-26T13:08:38;4.72;;;1.05;;
24161;SDS011;12318;51.262;7.066;2023-06-26T13:11:04;3.72;;;1.00;;
24161;SDS011;12318;51.262;7.066;2023-06-26T13:13:30;7.70;;;1.10;;
24161;SDS011;12318;51.262;7.066;2023-06-26T13:15:56;3.90;;;0.80;;
24161;SDS011;12318;51.262;7.066;2023-06-26T13:18:22;5.63;;;1.10;;
24161;SDS011;12318;51.262;7.066;2023-06-26T13:23:33;7.13;;;1.65;;
24161;SDS011;12318;51.262;7.066;2023-06-26T13:25:58;4.65;;;1.02;;
24161;SDS011;12318;51.262;7.066;2023-06-26T13:28:24;7.10;;;1.23;;
24161;SDS011;12318;51.262;7.066;2023-06-26T13:30:53;3.13;;;0.90;;
24161;SDS011;12318;51.262;7.066;2023-06-26T13:33:19;2.92;;;1.08;;
24161;SDS011;12318;51.262;7.066;2023-06-26T13:35:45;3.35;;;1.20;;
24161;SDS011;12318;51.262;7.066;2023-06-26T13:38:11;3.13;;;1.13;;
24161;SDS011;12318;51.262;7.066;2023-06-26T13:40:37;4.38;;;1.00;;
24161;SDS011;12318;51.262;7.066;2023-06-26T13:43:02;4.07;;;1.30;;
24161;SDS011;12318;51.262;7.066;2023-06-26T13:45:28;5.22;;;0.95;;
24161;SDS011;12318;51.262;7.066;2023-06-26T13:47:54;3.97;;;0.90;;
24161;SDS011;12318;51.262;7.066;2023-06-26T13:50:20;2.67;;;0.95;;
24161;SDS011;12318;51.262;7.066;2023-06-26T13:52:46;5.95;;;1.25;;
24161;SDS011;12318;51.262;7.066;2023-06-26T13:55:11;4.63;;;0.90;;
24161;SDS011;12318;51.262;7.066;2023-06-26T13:57:37;4.15;;;1.27;;
24161;SDS011;12318;51.262;7.066;2023-06-26T14:00:09;3.75;;;1.40;;
24161;SDS011;12318;51.262;7.066;2023-06-26T14:02:37;4.47;;;1.02;;
24161;SDS011;12318;51.262;7.066;2023-06-26T14:05:02;8.60;;;1.27;;
24161;SDS011;12318;51.262;7.066;2023-06-26T14:07:29;6.55;;;1.10;;
24161;SDS011;12318;51.262;7.066;2023-06-26T14:09:57;3.47;;;1.15;;
24161;SDS011;12318;51.262;7.066;2023-06-26T14:12:23;4.70;;;1.55;;
24161;SDS011;12318;51.262;7.066;2023-06-26T14:14:50;9.18;;;1.42;;
24161;SDS011;12318;51.262;7.066;2023-06-26T14:17:15;3.45;;;1.08;;
24161;SDS011;12318;51.262;7.066;2023-06-26T14:19:41;4.05;;;1.05;;
24161;SDS011;12318;51.262;7.066;2023-06-26T14:22:07;8.15;;;1.17;;
24161;SDS011;12318;51.262;7.066;2023-06-26T14:24:33;4.07;;;1.25;;
24161;SDS011;12318;51.262;7.066;2023-06-26T14:26:59;9.25;;;1.52;;
24161;SDS011;12318;51.262;7.066;2023-06-26T14:29:26;4.35;;;1.17;;
24161;SDS011;12318;51.262;7.066;2023-06-26T14:31:51;3.08;;;1.08;;
24161;SDS011;12318;51.262;7.066;2023-06-26T14:34:17;9.68;;;1.45;;
24161;SDS011;12318;51.262;7.066;2023-06-26T14:36:43;6.20;;;1.10;;
24161;SDS011;12318;51.262;7.066;2023-06-26T14:39:13;5.75;;;1.08;;
24161;SDS011;12318;51.262;7.066;2023-06-26T14:41:39;4.85;;;1.25;;
24161;SDS011;12318;51.262;7.066;2023-06-26T14:44:04;3.80;;;0.90;;
24161;SDS011;12318;51.262;7.066;2023-06-26T14:46:33;2.78;;;0.93;;
24161;SDS011;12318;51.262;7.066;2023-06-26T14:48:59;8.55;;;0.93;;
24161;SDS011;12318;51.262;7.066;2023-06-26T14:51:25;3.05;;;0.95;;
24161;SDS011;12318;51.262;7.066;2023-06-26T14:53:51;6.13;;;1.30;;
24161;SDS011;12318;51.262;7.066;2023-06-26T14:56:16;8.18;;;1.23;;
24161;SDS011;12318;51.262;7.066;2023-06-26T14:58:42;6.75;;;1.38;;
24161;SDS011;12318;51.262;7.066;2023-06-26T15:01:08;2.83;;;1.10;;
24161;SDS011;12318;51.262;7.066;2023-06-26T15:03:34;3.17;;;1.20;;
24161;SDS011;12318;51.262;7.066;2023-06-26T15:06:00;3.60;;;1.20;;
24161;SDS011;12318;51.262;7.066;2023-06-26T15:08:25;4.00;;;1.17;;
24161;SDS011;12318;51.262;7.066;2023-06-26T15:10:51;5.18;;;1.27;;
24161;SDS011;12318;51.262;7.066;2023-06-26T15:13:17;7.22;;;1.10;;
24161;SDS011;12318;51.262;7.066;2023-06-26T15:15:43;4.05;;;1.10;;
24161;SDS011;12318;51.262;7.066;2023-06-26T15:18:08;5.13;;;1.42;;
24161;SDS011;12318;51.262;7.066;2023-06-26T15:20:35;3.70;;;1.00;;
24161;SDS011;12318;51.262;7.066;2023-06-26T15:23:01;5.03;;;1.20;;
24161;SDS011;12318;51.262;7.066;2023-06-26T15:25:27;5.80;;;1.35;;
24161;SDS011;12318;51.262;7.066;2023-06-26T15:27:53;3.65;;;1.17;;
24161;SDS011;12318;51.262;7.066;2023-06-26T15:30:26;4.22;;;1.20;;
24161;SDS011;12318;51.262;7.066;2023-06-26T15:32:52;7.63;;;1.25;;